createdAt,value
2023-05-05T00:01:55.145Z,7.08
2023-05-05T00:04:40.294Z,7.19
2023-05-05T00:07:25.452Z,7.27
2023-05-05T00:10:10.779Z,7.36
2023-05-05T00:12:56.344Z,7.33
2023-05-05T00:15:46.333Z,7.56
2023-05-05T00:18:31.756Z,7.67
2023-05-05T00:21:17.319Z,7.81
2023-05-05T00:24:03.078Z,7.42
2023-05-05T00:26:48.511Z,7.82
2023-05-05T00:29:33.887Z,7.41
2023-05-05T00:32:19.095Z,7.55
2023-05-05T00:35:04.633Z,7.75
2023-05-05T00:37:50.165Z,7.71
2023-05-05T00:40:36.403Z,7.24
2023-05-05T00:43:21.869Z,7.58
2023-05-05T00:46:22.237Z,7.54
2023-05-05T00:49:08.347Z,7.35
2023-05-05T00:51:53.832Z,6.89
2023-05-05T00:54:39.157Z,6.80
2023-05-05T00:57:25.428Z,7.04
2023-05-05T01:00:11.207Z,7.07
2023-05-05T01:02:56.779Z,6.75
2023-05-05T01:06:10.239Z,6.95
2023-05-05T01:09:15.539Z,6.95
2023-05-05T01:12:18.967Z,6.91
2023-05-05T01:15:14.803Z,6.94
2023-05-05T01:18:11.801Z,6.84
2023-05-05T01:21:19.609Z,6.80
2023-05-05T01:24:26.220Z,6.76
2023-05-05T01:27:39.272Z,6.70
2023-05-05T01:30:43.197Z,6.75
2023-05-05T01:33:35.218Z,6.71
2023-05-05T01:36:25.224Z,6.65
2023-05-05T01:39:15.668Z,6.63
2023-05-05T01:42:08.038Z,6.69
2023-05-05T01:44:54.279Z,6.69
2023-05-05T01:47:40.488Z,6.64
2023-05-05T01:50:28.775Z,6.64
2023-05-05T01:53:17.225Z,6.62
2023-05-05T01:56:03.680Z,6.38
2023-05-05T01:58:49.748Z,6.59
2023-05-05T02:01:38.679Z,6.59
2023-05-05T02:04:24.369Z,6.61
2023-05-05T02:07:12.593Z,6.62
2023-05-05T02:09:59.413Z,6.29
2023-05-05T02:12:46.102Z,6.59
2023-05-05T02:15:31.813Z,6.57
2023-05-05T02:18:18.591Z,6.58
2023-05-05T02:21:05.026Z,6.59
2023-05-05T02:23:51.133Z,6.54
2023-05-05T02:26:40.150Z,6.46
2023-05-05T02:29:39.430Z,6.59
2023-05-05T02:32:35.984Z,6.33
2023-05-05T02:35:26.704Z,6.53
2023-05-05T02:38:16.930Z,6.50
2023-05-05T02:41:05.214Z,6.37
2023-05-05T02:43:52.135Z,6.45
2023-05-05T02:46:38.042Z,6.40
2023-05-05T02:49:23.297Z,6.40
2023-05-05T02:52:09.133Z,6.39
2023-05-05T02:54:56.162Z,6.37
2023-05-05T02:57:48.326Z,6.33
2023-05-05T03:00:42.524Z,6.31
2023-05-05T03:03:37.575Z,6.16
2023-05-05T03:06:26.451Z,6.18
2023-05-05T03:09:30.357Z,6.14
2023-05-05T03:12:20.820Z,6.10
2023-05-05T03:15:49.264Z,6.10
2023-05-05T03:18:38.561Z,6.11
2023-05-05T03:21:24.225Z,6.11
2023-05-05T03:24:17.780Z,6.14
2023-05-05T03:27:09.013Z,6.15
2023-05-05T03:29:57.027Z,6.19
2023-05-05T03:32:43.308Z,6.19
2023-05-05T03:35:29.092Z,6.19
2023-05-05T03:38:14.485Z,6.18
2023-05-05T03:41:02.472Z,6.16
2023-05-05T03:43:47.937Z,6.11
2023-05-05T03:46:33.111Z,6.12
2023-05-05T03:49:18.562Z,6.18
2023-05-05T03:52:05.527Z,6.27
2023-05-05T03:54:51.422Z,6.06
2023-05-05T03:57:37.185Z,6.22
2023-05-05T04:00:22.293Z,6.17
2023-05-05T04:03:08.026Z,6.19
2023-05-05T04:05:53.280Z,6.19
2023-05-05T04:08:40.091Z,6.02
2023-05-05T04:11:25.790Z,6.23
2023-05-05T04:14:12.836Z,6.20
2023-05-05T04:16:58.075Z,6.16
2023-05-05T04:19:43.528Z,6.15
2023-05-05T04:22:29.097Z,6.13
2023-05-05T04:25:14.894Z,6.17
2023-05-05T04:28:00.430Z,6.19
2023-05-05T04:30:47.257Z,6.23
2023-05-05T04:33:32.507Z,6.21
2023-05-05T04:36:18.193Z,6.19
2023-05-05T04:39:04.325Z,6.16
2023-05-05T04:41:49.873Z,6.10
2023-05-05T04:44:35.143Z,6.31
2023-05-05T04:47:20.771Z,6.81
2023-05-05T04:50:07.553Z,7.25
2023-05-05T04:52:53.006Z,7.35
2023-05-05T04:55:41.531Z,7.53
2023-05-05T04:58:26.715Z,7.52
2023-05-05T05:01:14.098Z,7.58
2023-05-05T05:03:59.609Z,7.33
2023-05-05T05:06:45.014Z,7.16
2023-05-05T05:09:30.326Z,7.17
2023-05-05T05:12:16.184Z,6.99
2023-05-05T05:15:01.729Z,7.57
2023-05-05T05:17:47.509Z,7.88
2023-05-05T05:20:33.337Z,8.09
2023-05-05T05:23:19.437Z,8.27
2023-05-05T05:26:06.296Z,8.28
2023-05-05T05:28:52.369Z,8.38
2023-05-05T05:31:38.059Z,8.66
2023-05-05T05:34:23.731Z,8.78
2023-05-05T05:37:09.464Z,8.92
2023-05-05T05:39:55.278Z,8.79
2023-05-05T05:42:42.011Z,8.85
2023-05-05T05:45:29.179Z,9.23
2023-05-05T05:48:15.182Z,9.69
2023-05-05T05:51:00.771Z,10.12
2023-05-05T05:53:46.560Z,10.94
2023-05-05T05:56:32.278Z,10.22
2023-05-05T05:59:17.795Z,10.20
2023-05-05T06:02:02.989Z,10.57
2023-05-05T06:04:48.075Z,10.72
2023-05-05T06:07:33.820Z,10.81
2023-05-05T06:13:12.358Z,10.64
2023-05-05T06:16:01.682Z,11.15
2023-05-05T06:18:46.965Z,11.10
2023-05-05T06:21:32.671Z,11.44
2023-05-05T06:24:18.070Z,12.06
2023-05-05T06:27:03.577Z,12.56
2023-05-05T06:29:49.109Z,12.62
2023-05-05T06:32:34.278Z,12.85
2023-05-05T06:35:19.765Z,12.92
2023-05-05T06:38:05.184Z,12.64
2023-05-05T06:40:50.490Z,12.58
2023-05-05T06:43:35.691Z,13.27
2023-05-05T06:46:25.618Z,13.17
2023-05-05T06:49:11.098Z,13.43
2023-05-05T06:51:56.241Z,13.66
2023-05-05T06:54:42.561Z,13.69
2023-05-05T06:57:27.530Z,13.47
2023-05-05T07:00:13.605Z,14.00
2023-05-05T07:02:59.119Z,14.11
2023-05-05T07:05:44.135Z,14.52
2023-05-05T07:08:29.407Z,14.55
2023-05-05T07:11:14.674Z,14.57
2023-05-05T07:14:00.462Z,14.77
2023-05-05T07:16:45.733Z,14.31
2023-05-05T07:19:30.828Z,14.72
2023-05-05T07:22:16.180Z,14.72
2023-05-05T07:25:02.730Z,15.02
2023-05-05T07:27:48.678Z,14.93
2023-05-05T07:30:33.988Z,14.92
2023-05-05T07:33:19.100Z,15.22
2023-05-05T07:36:04.720Z,15.74
2023-05-05T07:38:49.801Z,15.77
2023-05-05T07:41:35.078Z,15.86
2023-05-05T07:44:20.275Z,15.65
2023-05-05T07:47:05.514Z,15.60
2023-05-05T07:49:51.080Z,16.05
2023-05-05T07:52:46.694Z,15.85
2023-05-05T07:55:37.200Z,16.11
2023-05-05T07:58:22.476Z,15.54
2023-05-05T08:01:08.218Z,15.61
2023-05-05T08:03:53.544Z,15.87
2023-05-05T08:06:38.762Z,16.55
2023-05-05T08:09:24.106Z,16.13
2023-05-05T08:12:09.548Z,16.34
2023-05-05T08:14:54.882Z,16.15
2023-05-05T08:17:50.981Z,16.37
2023-05-05T08:20:36.391Z,16.59
2023-05-05T08:23:21.774Z,17.02
2023-05-05T08:26:07.517Z,16.98
2023-05-05T08:28:53.169Z,17.12
2023-05-05T08:31:38.397Z,17.47
2023-05-05T08:34:23.906Z,17.51
2023-05-05T08:37:09.366Z,17.23
2023-05-05T08:39:54.567Z,16.80
2023-05-05T08:42:40.828Z,16.67
2023-05-05T08:45:28.192Z,16.67
2023-05-05T08:48:17.079Z,17.30
2023-05-05T08:51:05.617Z,17.47
2023-05-05T08:53:53.823Z,17.26
2023-05-05T08:56:40.562Z,17.29
2023-05-05T08:59:26.070Z,17.70
2023-05-05T09:02:12.537Z,17.86
2023-05-05T09:04:58.050Z,18.23
2023-05-05T09:07:44.345Z,18.40
2023-05-05T09:10:30.349Z,18.47
2023-05-05T09:13:15.684Z,18.96
2023-05-05T09:16:00.975Z,19.29
2023-05-05T09:18:46.124Z,19.68
2023-05-05T09:21:31.562Z,19.95
2023-05-05T09:24:16.711Z,20.26
2023-05-05T09:27:21.752Z,20.16
2023-05-05T09:30:09.401Z,20.29
2023-05-05T09:32:55.200Z,20.41
2023-05-05T09:35:54.732Z,20.56
2023-05-05T09:38:39.803Z,20.66
2023-05-05T09:41:41.847Z,20.32
2023-05-05T09:44:37.836Z,20.67
2023-05-05T09:47:34.931Z,21.00
2023-05-05T09:50:22.037Z,21.47
2023-05-05T09:53:08.094Z,21.48
2023-05-05T09:55:58.215Z,21.56
2023-05-05T09:58:43.366Z,21.93
2023-05-05T10:01:28.491Z,21.80
2023-05-05T10:04:27.709Z,21.82
2023-05-05T10:07:23.476Z,21.00
2023-05-05T10:10:11.650Z,21.40
2023-05-05T10:12:57.839Z,21.00
2023-05-05T10:15:45.720Z,20.81
2023-05-05T10:18:32.210Z,21.06
2023-05-05T10:21:20.604Z,21.06
2023-05-05T10:24:46.516Z,20.99
2023-05-05T10:27:38.864Z,21.16
2023-05-05T10:30:29.281Z,20.60
2023-05-05T10:33:32.006Z,20.66
2023-05-05T10:36:20.177Z,20.48
2023-05-05T10:39:06.138Z,20.95
2023-05-05T10:41:52.114Z,21.11
2023-05-05T10:44:37.538Z,20.78
2023-05-05T10:47:24.369Z,20.61
2023-05-05T10:50:29.510Z,20.35
2023-05-05T10:53:28.131Z,20.44
2023-05-05T10:56:30.163Z,20.18
2023-05-05T10:59:37.169Z,20.22
2023-05-05T11:02:29.760Z,20.56
2023-05-05T11:05:17.062Z,20.61
2023-05-05T11:08:25.714Z,21.05
2023-05-05T11:11:12.133Z,21.04
2023-05-05T11:14:20.490Z,20.74
2023-05-05T11:17:44.507Z,20.87
2023-05-05T11:20:35.732Z,20.56
2023-05-05T11:23:20.857Z,20.56
2023-05-05T11:26:06.225Z,20.19
2023-05-05T11:28:57.338Z,20.69
2023-05-05T11:31:42.894Z,20.86
2023-05-05T11:34:28.597Z,21.15
2023-05-05T11:37:15.331Z,21.15
2023-05-05T11:40:13.388Z,20.59
2023-05-05T11:43:05.652Z,20.45
2023-05-05T11:46:09.732Z,20.03
2023-05-05T11:48:55.116Z,20.18
2023-05-05T11:51:40.482Z,19.25
2023-05-05T11:54:26.201Z,19.31
2023-05-05T11:57:11.342Z,19.96
2023-05-05T12:00:05.895Z,20.00
2023-05-05T12:02:56.462Z,20.05
2023-05-05T12:05:42.121Z,19.98
2023-05-05T12:08:28.041Z,20.04
2023-05-05T12:11:13.491Z,19.74
2023-05-05T12:14:11.626Z,19.68
2023-05-05T12:17:01.176Z,19.49
2023-05-05T12:19:48.104Z,19.93
2023-05-05T12:22:33.745Z,19.72
2023-05-05T12:25:18.939Z,19.60
2023-05-05T12:28:05.644Z,19.55
2023-05-05T12:30:59.940Z,19.61
2023-05-05T12:33:45.654Z,19.68
2023-05-05T12:36:32.597Z,19.28
2023-05-05T12:39:17.974Z,19.66
2023-05-05T12:42:06.637Z,19.57
2023-05-05T12:44:52.254Z,19.50
2023-05-05T12:47:37.487Z,19.55
2023-05-05T12:50:32.556Z,19.24
2023-05-05T12:53:24.866Z,19.83
2023-05-05T12:56:47.672Z,19.78
2023-05-05T12:59:32.720Z,19.75
2023-05-05T13:02:18.398Z,19.80
2023-05-05T13:05:03.700Z,19.66
2023-05-05T13:07:50.918Z,19.64
2023-05-05T13:10:35.979Z,19.43
2023-05-05T13:13:21.265Z,19.51
2023-05-05T13:16:07.484Z,19.47
2023-05-05T13:18:52.831Z,19.06
2023-05-05T13:21:38.080Z,18.90
2023-05-05T13:24:38.094Z,18.79
2023-05-05T13:27:30.177Z,18.71
2023-05-05T13:30:15.687Z,19.05
2023-05-05T13:33:02.101Z,18.70
2023-05-05T13:35:49.849Z,18.69
2023-05-05T13:38:35.069Z,18.62
2023-05-05T13:41:20.764Z,18.52
2023-05-05T13:44:06.322Z,18.56
2023-05-05T13:46:51.821Z,18.72
2023-05-05T13:49:36.960Z,18.80
2023-05-05T13:52:22.340Z,18.78
2023-05-05T13:55:08.382Z,18.99
2023-05-05T13:57:54.056Z,18.91
2023-05-05T14:00:39.788Z,18.80
2023-05-05T14:03:25.136Z,19.12
2023-05-05T14:06:10.527Z,19.07
2023-05-05T14:08:55.820Z,19.20
2023-05-05T14:11:41.255Z,19.17
2023-05-05T14:14:26.581Z,18.86
2023-05-05T14:17:11.877Z,18.65
2023-05-05T14:19:57.129Z,18.70
2023-05-05T14:22:42.369Z,18.88
2023-05-05T14:25:52.342Z,18.83
2023-05-05T14:28:37.498Z,19.16
2023-05-05T14:31:22.659Z,18.49
2023-05-05T14:34:07.790Z,18.35
2023-05-05T14:36:53.527Z,18.07
2023-05-05T14:39:38.915Z,17.95
2023-05-05T14:42:25.126Z,17.98
2023-05-05T14:45:11.130Z,17.95
2023-05-05T14:47:57.170Z,18.04
2023-05-05T14:50:42.842Z,18.06
2023-05-05T14:53:28.047Z,17.46
2023-05-05T14:56:13.822Z,17.26
2023-05-05T14:58:59.086Z,16.81
2023-05-05T15:01:44.317Z,16.80
2023-05-05T15:04:29.629Z,16.48
2023-05-05T15:07:14.905Z,15.88
2023-05-05T15:10:00.376Z,15.81
2023-05-05T15:12:46.105Z,15.32
2023-05-05T15:15:31.301Z,15.15
2023-05-05T15:18:16.803Z,14.73
2023-05-05T15:21:02.269Z,14.42
2023-05-05T15:23:47.401Z,14.65
2023-05-05T15:26:32.724Z,14.29
2023-05-05T15:29:17.995Z,14.09
2023-05-05T15:32:03.479Z,14.04
2023-05-05T15:34:50.225Z,14.13
2023-05-05T15:37:36.316Z,13.94
2023-05-05T15:40:22.523Z,14.05
2023-05-05T15:43:09.738Z,14.45
2023-05-05T15:45:58.296Z,13.95
2023-05-05T15:48:46.573Z,14.07
2023-05-05T15:51:32.374Z,14.47
2023-05-05T15:54:30.660Z,14.27
2023-05-05T15:57:20.962Z,14.30
2023-05-05T16:00:11.389Z,14.29
2023-05-05T16:02:57.455Z,13.88
2023-05-05T16:05:42.721Z,13.98
2023-05-05T16:08:27.932Z,14.14
2023-05-05T16:11:14.202Z,14.20
2023-05-05T16:13:59.728Z,14.29
2023-05-05T16:16:46.409Z,14.08
2023-05-05T16:19:31.920Z,14.34
2023-05-05T16:22:16.996Z,14.47
2023-05-05T16:25:02.311Z,14.50
2023-05-05T16:27:47.738Z,14.67
2023-05-05T16:30:32.949Z,15.00
2023-05-05T16:33:18.437Z,14.88
2023-05-05T16:36:04.065Z,14.81
2023-05-05T16:38:53.969Z,14.55
2023-05-05T16:41:40.163Z,14.65
2023-05-05T16:44:25.476Z,14.60
2023-05-05T16:47:10.792Z,14.01
2023-05-05T16:49:56.274Z,14.26
2023-05-05T16:52:43.036Z,13.80
2023-05-05T16:55:28.583Z,14.51
2023-05-05T16:58:13.691Z,14.61
2023-05-05T17:00:58.967Z,14.36
2023-05-05T17:03:44.243Z,14.18
2023-05-05T17:06:32.988Z,14.35
2023-05-05T17:09:18.556Z,14.44
2023-05-05T17:12:04.461Z,14.59
2023-05-05T17:14:49.881Z,14.67
2023-05-05T17:17:35.248Z,14.82
2023-05-05T17:20:20.631Z,14.37
2023-05-05T17:23:06.770Z,14.23
2023-05-05T17:25:52.645Z,14.19
2023-05-05T17:28:39.395Z,14.21
2023-05-05T17:31:25.882Z,14.18
2023-05-05T17:34:11.544Z,13.85
2023-05-05T17:36:56.974Z,14.61
2023-05-05T17:39:45.837Z,14.66
2023-05-05T17:42:31.885Z,14.40
2023-05-05T17:45:17.943Z,14.43
2023-05-05T17:48:06.462Z,14.40
2023-05-05T17:50:51.829Z,14.53
2023-05-05T17:53:37.260Z,14.18
2023-05-05T17:56:23.977Z,13.89
2023-05-05T17:59:13.365Z,13.92
2023-05-05T18:02:00.914Z,13.83
2023-05-05T18:04:47.083Z,13.96
2023-05-05T18:07:32.550Z,14.22
2023-05-05T18:10:17.772Z,13.96
2023-05-05T18:13:03.788Z,13.65
2023-05-05T18:15:50.290Z,13.67
2023-05-05T18:18:35.725Z,13.55
2023-05-05T18:21:21.158Z,13.20
2023-05-05T18:24:18.629Z,13.08
2023-05-05T18:27:06.890Z,13.53
2023-05-05T18:29:52.310Z,13.08
2023-05-05T18:32:38.345Z,13.27
2023-05-05T18:35:24.032Z,13.46
2023-05-05T18:38:09.309Z,13.37
2023-05-05T18:40:55.553Z,13.93
2023-05-05T18:43:41.270Z,13.99
2023-05-05T18:46:26.625Z,13.60
2023-05-05T18:49:14.866Z,13.93
2023-05-05T18:52:00.216Z,13.93
2023-05-05T18:54:45.682Z,13.94
2023-05-05T18:57:35.539Z,13.97
2023-05-05T19:00:21.262Z,13.87
2023-05-05T19:03:06.826Z,13.65
2023-05-05T19:05:52.714Z,13.79
2023-05-05T19:08:38.755Z,13.68
2023-05-05T19:11:24.999Z,13.13
2023-05-05T19:14:11.451Z,13.20
2023-05-05T19:16:57.385Z,13.21
2023-05-05T19:19:45.580Z,12.99
2023-05-05T19:22:30.826Z,12.55
2023-05-05T19:25:16.996Z,12.63
2023-05-05T19:28:02.597Z,12.87
2023-05-05T19:30:49.666Z,13.20
2023-05-05T19:33:37.616Z,13.28
2023-05-05T19:36:23.186Z,13.32
2023-05-05T19:39:09.026Z,13.33
2023-05-05T19:41:54.565Z,13.44
2023-05-05T19:44:40.128Z,13.57
2023-05-05T19:47:25.859Z,13.68
2023-05-05T19:50:12.240Z,13.37
2023-05-05T19:52:58.078Z,13.63
2023-05-05T19:55:43.437Z,13.80
2023-05-05T19:58:28.877Z,13.23
2023-05-05T20:01:14.304Z,13.54
2023-05-05T20:04:03.954Z,13.49
2023-05-05T20:06:50.233Z,13.58
2023-05-05T20:09:35.604Z,13.68
2023-05-05T20:12:20.815Z,13.63
2023-05-05T20:15:07.125Z,13.34
2023-05-05T20:17:52.309Z,13.33
2023-05-05T20:20:37.887Z,13.20
2023-05-05T20:23:23.371Z,13.18
2023-05-05T20:26:09.440Z,13.25
2023-05-05T20:28:54.962Z,13.13
2023-05-05T20:31:40.190Z,13.19
2023-05-05T20:34:25.495Z,13.19
2023-05-05T20:37:12.447Z,13.17
2023-05-05T20:39:58.846Z,13.12
2023-05-05T20:42:44.102Z,13.24
2023-05-05T20:45:29.222Z,13.33
2023-05-05T20:48:14.720Z,13.35
2023-05-05T20:51:03.658Z,12.85
2023-05-05T20:53:49.110Z,13.27
2023-05-05T20:56:34.314Z,12.94
2023-05-05T20:59:19.448Z,13.32
2023-05-05T21:02:04.633Z,13.33
2023-05-05T21:04:50.378Z,13.33
2023-05-05T21:07:35.527Z,13.39
2023-05-05T21:10:21.121Z,13.17
2023-05-05T21:13:06.327Z,13.11
2023-05-05T21:15:51.661Z,13.03
2023-05-05T21:18:36.695Z,12.79
2023-05-05T21:21:22.051Z,12.54
2023-05-05T21:24:08.243Z,11.84
2023-05-05T21:26:53.995Z,11.58
2023-05-05T21:29:39.433Z,11.88
2023-05-05T21:32:25.166Z,12.11
2023-05-05T21:35:10.853Z,12.12
2023-05-05T21:37:56.381Z,12.48
2023-05-05T21:40:41.575Z,12.60
2023-05-05T21:43:27.200Z,12.64
2023-05-05T21:46:12.288Z,12.73
2023-05-05T21:48:59.684Z,12.81
2023-05-05T21:51:46.290Z,12.80
2023-05-05T21:54:31.453Z,12.81
2023-05-05T21:57:16.978Z,12.89
2023-05-05T22:00:03.336Z,12.89
2023-05-05T22:02:57.680Z,12.87
2023-05-05T22:05:42.840Z,12.91
2023-05-05T22:08:28.312Z,12.94
2023-05-05T22:11:13.946Z,12.89
2023-05-05T22:13:59.347Z,12.91
2023-05-05T22:16:44.547Z,12.89
2023-05-05T22:19:29.557Z,12.88
2023-05-05T22:22:14.711Z,12.84
2023-05-05T22:24:59.848Z,12.81
2023-05-05T22:27:45.316Z,12.70
2023-05-05T22:30:30.921Z,12.77
2023-05-05T22:33:16.795Z,12.60
2023-05-05T22:36:02.102Z,12.59
2023-05-05T22:38:47.209Z,12.43
2023-05-05T22:41:32.302Z,12.32
2023-05-05T22:44:18.480Z,12.05
2023-05-05T22:47:03.831Z,11.89
2023-05-05T22:49:49.202Z,11.93
2023-05-05T22:52:34.415Z,11.98
2023-05-05T22:55:19.669Z,11.98
2023-05-05T22:58:04.859Z,11.81
2023-05-05T23:00:49.970Z,11.90
2023-05-05T23:03:35.284Z,11.88
2023-05-05T23:06:20.505Z,11.65
2023-05-05T23:09:06.079Z,11.90
2023-05-05T23:11:52.690Z,11.97
2023-05-05T23:14:38.071Z,11.49
2023-05-05T23:17:23.682Z,11.67
2023-05-05T23:20:09.437Z,11.88
2023-05-05T23:22:55.414Z,11.94
2023-05-05T23:25:40.601Z,11.73
2023-05-05T23:28:26.344Z,11.78
2023-05-05T23:31:11.900Z,11.63
2023-05-05T23:33:57.319Z,11.57
2023-05-05T23:36:43.516Z,11.45
2023-05-05T23:39:28.664Z,11.33
2023-05-05T23:42:14.097Z,11.56
2023-05-05T23:44:59.574Z,11.31
2023-05-05T23:47:44.865Z,11.85
2023-05-05T23:50:30.321Z,11.81
2023-05-05T23:53:15.910Z,11.42
2023-05-05T23:56:01.661Z,11.50
2023-05-05T23:58:47.419Z,11.61
